Time;durP1;ratioP1;P1;durP2;ratioP2;P2;SDS_P1;SDS_P2;PMS_P1;PMS_P2;Temp;Humidity;BMP_temperature;BMP_pressure;BME280_temperature;BME280_humidity;BME280_pressure;Samples;Min_cycle;Max_cycle;Signal;HPM_P1;HPM_P2
2021/10/19 00:01:37;;;;;;;19.00;13.68;;;12.80;99.90;;;;;;5130351;28;20206;-82
2021/10/19 00:04:04;;;;;;;13.35;11.98;;;12.80;99.90;;;;;;5130531;28;20578;-84
2021/10/19 00:06:32;;;;;;;18.42;12.70;;;12.80;99.90;;;;;;5117692;27;20204;-83
2021/10/19 00:08:59;;;;;;;14.50;12.65;;;12.80;99.90;;;;;;5135137;27;20227;-83
2021/10/19 00:11:26;;;;;;;18.13;12.27;;;12.80;99.90;;;;;;5114994;27;20639;-83
2021/10/19 00:13:55;;;;;;;16.00;11.75;;;12.80;99.90;;;;;;5124485;28;20231;-84
2021/10/19 00:16:22;;;;;;;20.20;13.27;;;12.90;99.90;;;;;;5136831;27;20344;-82
2021/10/19 00:18:49;;;;;;;16.50;12.23;;;12.80;99.90;;;;;;5123514;27;20257;-82
2021/10/19 00:21:16;;;;;;;16.67;13.13;;;12.80;99.90;;;;;;5123432;28;20221;-82
2021/10/19 00:23:44;;;;;;;16.42;13.25;;;12.80;99.90;;;;;;5139470;27;20197;-82
2021/10/19 00:26:11;;;;;;;16.45;12.70;;;12.80;99.90;;;;;;5133279;27;20240;-83
2021/10/19 00:28:39;;;;;;;15.77;11.90;;;12.70;99.90;;;;;;5117607;28;20211;-84
2021/10/19 00:31:08;;;;;;;16.45;12.80;;;12.80;99.90;;;;;;5122611;28;20698;-82
2021/10/19 00:33:35;;;;;;;15.45;12.32;;;12.80;99.90;;;;;;5123034;28;20197;-83
2021/10/19 00:36:02;;;;;;;18.50;14.07;;;12.70;99.90;;;;;;5135065;27;20218;-84
2021/10/19 00:38:29;;;;;;;18.40;13.18;;;12.90;99.90;;;;;;5121621;27;20207;-82
2021/10/19 00:40:56;;;;;;;13.70;11.88;;;12.90;99.90;;;;;;5123246;27;20220;-83
2021/10/19 00:43:26;;;;;;;16.67;13.65;;;12.90;99.90;;;;;;5129364;27;20239;-82
2021/10/19 00:45:54;;;;;;;16.95;13.05;;;12.90;99.90;;;;;;5122639;28;20704;-82
2021/10/19 00:48:25;;;;;;;22.45;13.38;;;13.00;99.90;;;;;;5111088;28;20202;-83
2021/10/19 00:50:53;;;;;;;21.08;14.20;;;13.10;99.90;;;;;;5110602;27;20228;-82
2021/10/19 00:53:21;;;;;;;26.83;14.23;;;12.90;99.90;;;;;;5143108;27;20191;-82
2021/10/19 00:55:48;;;;;;;20.20;14.30;;;12.90;99.90;;;;;;5143417;27;20216;-85
2021/10/19 00:58:15;;;;;;;19.15;13.13;;;13.00;99.90;;;;;;5140069;28;20271;-87
2021/10/19 01:00:42;;;;;;;17.60;13.45;;;12.90;99.90;;;;;;5139966;28;20227;-82
2021/10/19 01:03:10;;;;;;;15.13;13.50;;;12.90;99.90;;;;;;5148402;27;20194;-84
2021/10/19 01:05:38;;;;;;;17.52;14.02;;;12.90;99.90;;;;;;5159545;27;20191;-82
2021/10/19 01:08:06;;;;;;;17.88;13.15;;;12.90;99.90;;;;;;5146504;27;20208;-83
2021/10/19 01:10:34;;;;;;;19.08;13.18;;;13.10;99.90;;;;;;5143470;27;20251;-82
2021/10/19 01:13:01;;;;;;;20.42;14.60;;;13.10;99.90;;;;;;5143612;27;20229;-82
2021/10/19 01:15:33;;;;;;;16.80;13.38;;;13.00;99.90;;;;;;5136591;27;20204;-83
2021/10/19 01:18:00;;;;;;;20.27;15.45;;;13.00;99.90;;;;;;5124208;28;20178;-83
2021/10/19 01:20:30;;;;;;;18.35;13.57;;;13.00;99.90;;;;;;5124393;28;20227;-84
2021/10/19 01:22:59;;;;;;;23.63;15.20;;;12.90;99.90;;;;;;5128350;27;20201;-82
2021/10/19 01:25:29;;;;;;;18.55;15.20;;;12.90;99.90;;;;;;5144866;27;20665;-82
2021/10/19 01:27:59;;;;;;;17.52;13.75;;;12.90;99.90;;;;;;5130479;27;20295;-82
2021/10/19 01:30:27;;;;;;;20.23;14.25;;;12.70;99.90;;;;;;5125039;28;20223;-83
2021/10/19 01:32:55;;;;;;;19.55;14.02;;;12.70;99.90;;;;;;5140166;27;20676;-82
2021/10/19 01:35:33;;;;;;;18.83;14.07;;;12.70;99.90;;;;;;5123311;28;20200;-84
2021/10/19 01:38:00;;;;;;;18.25;14.13;;;12.70;99.90;;;;;;5123122;28;20217;-82
2021/10/19 01:40:28;;;;;;;19.42;14.13;;;12.60;99.90;;;;;;5124212;27;20216;-82
2021/10/19 01:42:55;;;;;;;16.52;13.77;;;12.70;99.90;;;;;;5122374;28;20199;-83
2021/10/19 01:45:22;;;;;;;21.80;15.95;;;12.70;99.90;;;;;;5115391;28;20207;-83
2021/10/19 01:47:49;;;;;;;19.67;15.85;;;12.70;99.90;;;;;;5121786;28;20200;-82
2021/10/19 01:50:19;;;;;;;21.15;14.80;;;12.60;99.90;;;;;;5120753;28;20221;-82
2021/10/19 01:52:48;;;;;;;17.50;14.50;;;12.70;99.90;;;;;;5121649;28;20294;-82
2021/10/19 01:55:15;;;;;;;20.25;15.25;;;12.70;99.90;;;;;;5112264;28;20197;-83
2021/10/19 01:57:42;;;;;;;18.05;13.90;;;12.60;99.90;;;;;;5136239;27;20221;-82
2021/10/19 02:00:11;;;;;;;21.67;15.90;;;12.60;99.90;;;;;;5120546;28;20216;-83
2021/10/19 02:02:39;;;;;;;18.75;14.90;;;12.60;99.90;;;;;;5120662;28;20216;-83
2021/10/19 02:05:07;;;;;;;21.20;15.30;;;12.60;99.90;;;;;;5120631;28;20215;-82
2021/10/19 02:07:34;;;;;;;18.63;14.45;;;12.60;99.90;;;;;;5121145;28;20571;-83
2021/10/19 02:10:03;;;;;;;20.25;15.25;;;12.60;99.90;;;;;;5136174;27;20219;-84
2021/10/19 02:12:31;;;;;;;19.58;15.88;;;12.60;99.90;;;;;;5140179;27;20242;-83
2021/10/19 02:14:58;;;;;;;19.42;15.40;;;12.60;99.90;;;;;;5118027;28;20355;-83
2021/10/19 02:17:25;;;;;;;23.05;15.82;;;12.50;99.90;;;;;;5113466;28;20287;-83
2021/10/19 02:19:52;;;;;;;25.00;17.13;;;12.50;99.90;;;;;;5119675;28;20223;-84
2021/10/19 02:22:19;;;;;;;19.60;15.00;;;12.50;99.90;;;;;;5119220;28;20205;-83
2021/10/19 02:24:47;;;;;;;26.13;18.27;;;12.50;99.90;;;;;;5121707;27;20215;-84
2021/10/19 02:27:15;;;;;;;24.13;18.08;;;12.40;99.90;;;;;;5118968;28;20216;-83
2021/10/19 02:29:42;;;;;;;26.75;18.33;;;12.30;99.90;;;;;;5135410;27;20587;-83
2021/10/19 02:32:13;;;;;;;26.52;17.92;;;12.30;99.90;;;;;;5140869;27;20192;-83
2021/10/19 02:34:40;;;;;;;22.25;17.20;;;12.30;99.90;;;;;;5139822;27;20215;-82
2021/10/19 02:37:07;;;;;;;25.80;17.15;;;12.30;99.90;;;;;;5120016;28;20230;-83
2021/10/19 02:39:34;;;;;;;25.15;18.10;;;12.30;99.90;;;;;;5121799;28;20216;-83
2021/10/19 02:42:02;;;;;;;22.45;16.63;;;12.40;99.90;;;;;;5125233;28;20211;-83
2021/10/19 02:44:30;;;;;;;25.38;18.63;;;12.30;99.90;;;;;;5122342;28;20695;-83
2021/10/19 02:46:58;;;;;;;26.45;19.15;;;12.30;99.90;;;;;;5121216;28;20880;-83
2021/10/19 02:49:25;;;;;;;30.88;18.88;;;12.40;99.90;;;;;;5121415;28;20220;-83
2021/10/19 02:51:52;;;;;;;25.75;19.42;;;12.30;99.90;;;;;;5111904;28;20211;-83
2021/10/19 02:54:20;;;;;;;24.52;18.30;;;12.30;99.90;;;;;;5118536;28;20204;-85
2021/10/19 02:56:47;;;;;;;25.10;17.27;;;12.40;99.90;;;;;;5118116;28;20227;-83
2021/10/19 02:59:14;;;;;;;24.90;18.50;;;12.40;99.90;;;;;;5118035;28;20574;-84
2021/10/19 03:01:43;;;;;;;26.67;17.35;;;12.40;99.90;;;;;;5109539;28;20284;-83
2021/10/19 03:04:16;;;;;;;28.50;19.08;;;12.40;99.90;;;;;;5120863;28;20678;-84
2021/10/19 03:06:43;;;;;;;24.92;17.75;;;12.50;99.90;;;;;;5128994;28;20193;-83
2021/10/19 03:09:10;;;;;;;27.88;18.52;;;12.50;99.90;;;;;;5118529;28;20227;-83
2021/10/19 03:11:37;;;;;;;26.25;18.13;;;12.50;99.90;;;;;;5119567;28;20197;-84
2021/10/19 03:14:05;;;;;;;81.07;53.95;;;12.40;99.90;;;;;;5120293;28;20276;-85
2021/10/19 03:16:32;;;;;;;88.47;52.78;;;12.40;99.90;;;;;;5118871;28;20222;-84
2021/10/19 03:19:00;;;;;;;82.03;54.95;;;12.40;99.90;;;;;;5119412;28;20234;-84
2021/10/19 03:21:28;;;;;;;111.63;69.93;;;12.50;99.90;;;;;;5118987;28;20292;-83
2021/10/19 03:23:55;;;;;;;73.97;46.80;;;12.40;99.90;;;;;;5119510;28;20646;-83
2021/10/19 03:26:22;;;;;;;65.28;45.50;;;12.50;99.90;;;;;;5118486;28;20207;-83
2021/10/19 03:28:49;;;;;;;51.53;31.25;;;12.50;99.90;;;;;;5121219;28;20206;-84
2021/10/19 03:31:16;;;;;;;35.10;25.10;;;12.60;99.90;;;;;;5115255;28;20206;-83
2021/10/19 03:33:44;;;;;;;32.10;22.95;;;12.70;99.90;;;;;;5120936;28;20206;-83
2021/10/19 03:36:12;;;;;;;29.35;21.55;;;12.70;99.90;;;;;;5121254;28;20184;-83
2021/10/19 03:38:40;;;;;;;26.98;24.02;;;12.80;99.90;;;;;;5140837;28;20264;-84
2021/10/19 03:41:08;;;;;;;27.80;20.77;;;12.80;99.90;;;;;;5142434;28;20189;-85
2021/10/19 03:43:35;;;;;;;25.98;19.23;;;12.80;99.90;;;;;;5141953;28;20215;-85
2021/10/19 03:46:03;;;;;;;28.42;18.13;;;12.90;99.90;;;;;;5140226;28;20199;-83
2021/10/19 03:48:30;;;;;;;23.67;16.92;;;12.90;99.90;;;;;;5137808;28;20205;-84
2021/10/19 03:50:59;;;;;;;25.88;17.92;;;12.80;99.90;;;;;;5137652;28;20224;-84
2021/10/19 03:53:28;;;;;;;22.83;18.30;;;12.90;99.90;;;;;;5151205;27;20287;-84
2021/10/19 03:55:56;;;;;;;28.70;19.75;;;13.00;99.90;;;;;;5146563;27;20196;-84
2021/10/19 03:58:23;;;;;;;25.05;18.05;;;13.00;99.90;;;;;;5135185;28;20225;-84
2021/10/19 04:00:50;;;;;;;23.58;16.92;;;13.10;99.90;;;;;;5132702;28;20217;-84
2021/10/19 04:03:17;;;;;;;23.48;16.50;;;13.10;99.90;;;;;;5136614;27;20224;-84
2021/10/19 04:05:45;;;;;;;25.13;18.30;;;13.10;99.90;;;;;;5141857;27;20194;-85
2021/10/19 04:08:15;;;;;;;25.50;17.92;;;13.20;99.90;;;;;;5128554;27;20197;-85
2021/10/19 04:10:43;;;;;;;20.90;15.85;;;13.30;99.90;;;;;;5132200;27;20223;-85
2021/10/19 04:13:11;;;;;;;23.10;15.70;;;13.30;99.90;;;;;;5124349;27;20260;-84
2021/10/19 04:15:38;;;;;;;24.98;17.30;;;13.30;99.90;;;;;;5122665;28;20201;-84
2021/10/19 04:18:05;;;;;;;24.27;17.95;;;13.30;99.90;;;;;;5123000;28;20223;-84
2021/10/19 04:20:32;;;;;;;25.05;18.80;;;13.20;99.90;;;;;;5133187;27;20236;-83
2021/10/19 04:22:59;;;;;;;25.23;18.42;;;13.20;99.90;;;;;;5122577;27;20905;-84
2021/10/19 04:25:26;;;;;;;25.90;17.13;;;13.30;99.90;;;;;;5121955;28;20231;-84
2021/10/19 04:27:55;;;;;;;24.05;19.33;;;13.30;99.90;;;;;;5121957;28;20214;-84
2021/10/19 04:30:22;;;;;;;23.60;17.73;;;13.30;99.90;;;;;;5122019;28;20976;-83
2021/10/19 04:32:50;;;;;;;21.95;18.35;;;13.30;99.90;;;;;;5123916;28;20193;-84
2021/10/19 04:35:17;;;;;;;20.75;16.65;;;13.40;99.90;;;;;;5124100;28;20223;-84
2021/10/19 04:37:44;;;;;;;20.73;17.20;;;13.30;99.90;;;;;;5123266;28;20227;-84
2021/10/19 04:40:13;;;;;;;24.05;18.98;;;13.40;99.90;;;;;;5105851;28;20219;-84
2021/10/19 04:42:40;;;;;;;21.17;17.77;;;13.50;99.90;;;;;;5123013;28;20252;-84
2021/10/19 04:45:10;;;;;;;24.67;18.13;;;13.50;99.90;;;;;;5130047;27;20200;-84
2021/10/19 04:47:37;;;;;;;21.92;18.38;;;13.50;99.90;;;;;;5127140;27;20192;-84
2021/10/19 04:50:05;;;;;;;21.50;16.63;;;13.60;99.90;;;;;;5139744;27;20228;-84
2021/10/19 04:52:33;;;;;;;21.13;16.20;;;13.50;99.90;;;;;;5136032;27;20200;-84
2021/10/19 04:55:00;;;;;;;23.60;18.52;;;13.50;99.90;;;;;;5133323;27;20741;-84
2021/10/19 04:57:27;;;;;;;26.13;20.40;;;13.50;99.90;;;;;;5132753;27;20212;-84
2021/10/19 04:59:54;;;;;;;19.98;17.00;;;13.50;99.90;;;;;;5128875;28;20236;-84
2021/10/19 05:02:23;;;;;;;26.67;20.13;;;13.50;99.90;;;;;;5131061;27;20216;-83
2021/10/19 05:04:50;;;;;;;27.85;19.15;;;13.50;99.90;;;;;;5127052;27;20208;-83
2021/10/19 05:07:17;;;;;;;20.88;17.23;;;13.50;99.90;;;;;;5117429;27;20264;-85
2021/10/19 05:10:01;;;;;;;22.77;17.35;;;13.60;99.90;;;;;;5131026;27;20224;-83
2021/10/19 05:12:33;;;;;;;25.10;18.50;;;13.60;99.90;;;;;;5116173;28;20184;-86
2021/10/19 05:15:26;;;;;;;22.40;17.30;;;13.50;99.90;;;;;;5130632;27;20182;-87
2021/10/19 05:28:28;;;;;;;25.67;18.02;;;13.40;99.90;;;;;;5115441;27;20289;-86
2021/10/19 05:37:05;;;;;;;30.10;18.95;;;13.40;99.90;;;;;;5132972;27;20216;-89
2021/10/19 05:39:32;;;;;;;21.90;17.85;;;13.50;99.90;;;;;;5143408;27;20968;-88
2021/10/19 05:42:00;;;;;;;25.40;19.38;;;13.50;99.90;;;;;;5147027;27;20216;-86
2021/10/19 05:44:29;;;;;;;24.17;17.67;;;13.50;99.90;;;;;;5140168;27;20239;-85
2021/10/19 05:46:56;;;;;;;24.85;18.05;;;13.50;99.90;;;;;;5139111;27;20197;-86
2021/10/19 05:49:23;;;;;;;21.77;17.80;;;13.50;99.90;;;;;;5139950;27;20207;-84
2021/10/19 05:51:52;;;;;;;23.48;19.30;;;13.50;99.90;;;;;;5135404;27;20193;-86
2021/10/19 05:54:19;;;;;;;25.52;17.75;;;13.50;99.90;;;;;;5126738;27;20185;-86
2021/10/19 05:56:46;;;;;;;22.20;17.13;;;13.50;99.90;;;;;;5137288;27;20680;-86
2021/10/19 05:59:13;;;;;;;20.52;17.67;;;13.50;99.90;;;;;;5136689;27;20209;-83
2021/10/19 06:01:42;;;;;;;28.33;18.05;;;13.50;99.90;;;;;;5135010;27;20218;-84
2021/10/19 06:04:09;;;;;;;21.52;17.20;;;13.50;99.90;;;;;;5127575;27;20213;-84
2021/10/19 06:06:36;;;;;;;25.13;18.05;;;13.60;99.90;;;;;;5121418;28;20201;-84
2021/10/19 06:09:04;;;;;;;24.10;19.48;;;13.60;99.90;;;;;;5131614;27;20225;-83
2021/10/19 06:11:32;;;;;;;24.83;20.20;;;13.60;99.90;;;;;;5129709;27;20181;-83
2021/10/19 06:13:59;;;;;;;21.75;17.33;;;13.50;99.90;;;;;;5123339;27;20209;-86
2021/10/19 06:16:26;;;;;;;21.30;16.30;;;13.50;99.90;;;;;;5118168;28;20189;-84
2021/10/19 06:18:55;;;;;;;23.73;17.25;;;13.70;99.90;;;;;;5127688;27;20214;-84
2021/10/19 06:21:22;;;;;;;26.20;19.20;;;13.80;99.90;;;;;;5118003;28;20198;-84
2021/10/19 06:23:49;;;;;;;22.02;16.73;;;13.80;99.90;;;;;;5124051;27;20207;-84
2021/10/19 06:26:16;;;;;;;21.83;17.17;;;13.80;99.90;;;;;;5116418;28;20201;-83
2021/10/19 06:28:44;;;;;;;21.33;17.27;;;13.80;99.90;;;;;;5122547;27;20197;-83
2021/10/19 06:31:11;;;;;;;24.48;18.02;;;13.90;99.90;;;;;;5127316;27;20686;-83
2021/10/19 06:33:38;;;;;;;25.70;18.33;;;14.00;99.90;;;;;;5123512;27;20201;-82
2021/10/19 06:36:07;;;;;;;21.55;17.02;;;14.00;99.90;;;;;;5129915;27;20192;-85
2021/10/19 06:38:34;;;;;;;22.05;17.25;;;14.10;99.90;;;;;;5120671;27;20217;-85
2021/10/19 06:41:02;;;;;;;19.85;16.80;;;14.00;99.90;;;;;;5112841;27;20232;-84
2021/10/19 06:43:29;;;;;;;24.98;17.65;;;14.10;99.90;;;;;;5130409;27;20292;-84
2021/10/19 06:45:56;;;;;;;23.83;18.77;;;14.20;99.90;;;;;;5123930;27;20233;-84
2021/10/19 06:48:23;;;;;;;23.25;17.42;;;14.30;99.90;;;;;;5117000;28;20248;-83
2021/10/19 06:50:50;;;;;;;22.08;16.48;;;14.20;99.90;;;;;;5116963;28;20225;-83
2021/10/19 06:53:20;;;;;;;20.48;16.30;;;14.30;99.90;;;;;;5120297;28;20220;-83
2021/10/19 06:55:47;;;;;;;22.23;17.90;;;14.30;99.90;;;;;;5124947;28;20233;-83
2021/10/19 06:58:14;;;;;;;21.00;16.35;;;14.30;99.90;;;;;;5125839;28;20272;-83
2021/10/19 07:00:44;;;;;;;20.10;15.63;;;14.40;99.90;;;;;;5125989;28;20226;-84
2021/10/19 07:03:11;;;;;;;19.25;15.80;;;14.30;99.90;;;;;;5124321;28;20186;-82
2021/10/19 07:05:38;;;;;;;22.27;16.38;;;14.50;99.90;;;;;;5123292;28;20194;-83
2021/10/19 07:08:07;;;;;;;17.92;15.68;;;14.70;99.90;;;;;;5128839;28;20265;-82
2021/10/19 07:10:36;;;;;;;20.33;16.20;;;14.60;99.90;;;;;;5131389;28;20220;-83
2021/10/19 07:13:03;;;;;;;23.05;16.55;;;14.70;99.90;;;;;;5131989;28;20221;-82
2021/10/19 07:15:35;;;;;;;20.55;16.30;;;14.90;99.90;;;;;;5132444;28;20203;-84
2021/10/19 07:18:02;;;;;;;21.00;16.75;;;15.10;99.90;;;;;;5128020;28;20624;-85
2021/10/19 07:20:30;;;;;;;16.60;13.27;;;15.20;99.90;;;;;;5129911;28;20326;-83
2021/10/19 07:22:59;;;;;;;20.95;15.68;;;15.40;99.90;;;;;;5130178;28;20224;-85
2021/10/19 07:25:27;;;;;;;18.33;14.80;;;15.40;99.90;;;;;;5128906;28;20226;-83
2021/10/19 07:27:57;;;;;;;23.92;15.80;;;15.30;99.90;;;;;;5130902;28;20313;-83
2021/10/19 07:30:24;;;;;;;18.85;15.00;;;15.30;99.90;;;;;;5117566;28;20232;-83
2021/10/19 07:32:53;;;;;;;20.27;15.40;;;15.30;99.90;;;;;;5135858;27;20267;-85
2021/10/19 07:35:21;;;;;;;24.98;19.20;;;15.40;99.90;;;;;;5129516;28;20643;-83
2021/10/19 07:37:48;;;;;;;19.27;14.60;;;15.40;99.90;;;;;;5130290;28;20225;-83
2021/10/19 07:40:16;;;;;;;16.67;14.73;;;15.30;99.90;;;;;;5118032;27;20222;-83
2021/10/19 07:42:44;;;;;;;20.30;15.40;;;15.30;99.90;;;;;;5138285;27;20224;-84
2021/10/19 07:45:13;;;;;;;20.63;16.08;;;15.30;99.90;;;;;;5134989;27;20195;-82
2021/10/19 07:47:42;;;;;;;17.27;14.63;;;15.10;99.90;;;;;;5134096;28;20234;-83
2021/10/19 07:50:10;;;;;;;22.08;16.67;;;15.20;99.90;;;;;;5132763;28;20240;-83
2021/10/19 07:52:37;;;;;;;23.10;15.68;;;15.30;99.90;;;;;;5140199;27;20620;-83
2021/10/19 07:55:06;;;;;;;17.48;13.68;;;15.20;99.90;;;;;;5145533;27;20198;-83
2021/10/19 07:57:33;;;;;;;14.82;13.32;;;15.30;99.90;;;;;;5127646;28;20776;-83
2021/10/19 08:00:00;;;;;;;21.30;14.07;;;15.30;99.90;;;;;;5137613;27;20240;-82
2021/10/19 08:02:28;;;;;;;18.20;15.82;;;15.30;99.90;;;;;;5150243;27;20248;-83
2021/10/19 08:04:56;;;;;;;19.58;16.60;;;15.40;99.90;;;;;;5141924;27;20207;-83
2021/10/19 08:07:23;;;;;;;18.92;15.02;;;15.40;99.90;;;;;;5130275;28;20203;-82
2021/10/19 08:09:50;;;;;;;19.60;15.35;;;15.50;99.90;;;;;;5130377;27;20291;-83
2021/10/19 08:12:17;;;;;;;15.45;13.93;;;15.50;99.90;;;;;;5133433;27;20245;-83
2021/10/19 08:14:44;;;;;;;17.73;14.40;;;15.50;99.90;;;;;;5127499;27;20209;-84
2021/10/19 08:17:11;;;;;;;18.00;13.77;;;15.60;99.90;;;;;;5126127;28;20210;-84
2021/10/19 08:19:40;;;;;;;17.08;14.38;;;15.60;99.90;;;;;;5126483;27;20325;-85
2021/10/19 08:22:09;;;;;;;14.88;13.27;;;15.60;99.90;;;;;;5128479;28;20203;-83
2021/10/19 08:24:36;;;;;;;16.25;12.82;;;15.50;99.90;;;;;;5130170;27;20201;-84
2021/10/19 08:27:03;;;;;;;18.17;14.73;;;15.60;99.90;;;;;;5129615;27;20285;-83
2021/10/19 08:29:30;;;;;;;19.80;13.97;;;15.60;99.90;;;;;;5132149;28;20228;-83
2021/10/19 08:31:57;;;;;;;15.10;13.05;;;15.70;99.90;;;;;;5138048;27;20510;-84
2021/10/19 08:34:24;;;;;;;18.47;13.13;;;15.70;99.90;;;;;;5140050;27;20263;-84
2021/10/19 08:36:53;;;;;;;18.55;12.60;;;15.80;99.90;;;;;;5135117;27;20453;-84
2021/10/19 08:39:20;;;;;;;14.98;13.15;;;16.00;99.90;;;;;;5131068;28;20241;-86
2021/10/19 08:41:47;;;;;;;20.77;13.98;;;16.10;99.90;;;;;;5131236;28;20209;-83
2021/10/19 08:44:14;;;;;;;16.20;13.30;;;16.00;99.90;;;;;;5129210;27;20216;-84
2021/10/19 08:46:42;;;;;;;15.00;13.33;;;16.20;99.90;;;;;;5125368;27;20451;-85
2021/10/19 08:49:09;;;;;;;15.60;12.80;;;16.30;99.90;;;;;;5125425;28;20545;-87
2021/10/19 08:51:39;;;;;;;14.98;13.43;;;16.40;99.90;;;;;;5139333;27;20268;-86
2021/10/19 08:54:09;;;;;;;15.57;11.63;;;16.50;99.90;;;;;;5127663;27;20206;-84
2021/10/19 08:56:38;;;;;;;18.30;13.90;;;16.60;99.90;;;;;;5124979;27;20252;-85
2021/10/19 08:59:05;;;;;;;15.77;12.47;;;16.70;99.90;;;;;;5121254;27;20300;-85
2021/10/19 09:01:36;;;;;;;18.20;14.13;;;16.70;99.90;;;;;;5121074;28;20447;-84
2021/10/19 09:04:08;;;;;;;15.90;12.90;;;16.80;99.90;;;;;;5131877;27;20453;-84
2021/10/19 09:06:36;;;;;;;14.50;12.97;;;16.90;99.90;;;;;;5127710;27;20461;-85
2021/10/19 09:09:05;;;;;;;17.30;13.27;;;16.80;99.90;;;;;;5118373;28;20482;-84
2021/10/19 09:11:40;;;;;;;17.00;11.90;;;16.90;99.90;;;;;;5119810;27;20435;-84
2021/10/19 09:14:07;;;;;;;16.37;13.20;;;17.00;99.90;;;;;;5113879;27;20442;-83
2021/10/19 09:16:40;;;;;;;15.60;13.33;;;16.80;99.90;;;;;;5128014;28;20449;-82
2021/10/19 09:19:09;;;;;;;18.67;14.97;;;16.60;99.90;;;;;;5124882;28;20500;-84
2021/10/19 09:21:37;;;;;;;15.23;13.20;;;16.60;99.90;;;;;;5126997;27;20455;-83
2021/10/19 09:24:18;;;;;;;16.30;13.07;;;16.70;99.90;;;;;;5118871;27;20463;-83
2021/10/19 09:26:55;;;;;;;18.07;15.10;;;16.80;99.90;;;;;;5128962;27;20475;-84
2021/10/19 09:29:22;;;;;;;19.67;16.00;;;16.90;99.90;;;;;;5128504;27;20471;-83
2021/10/19 09:31:54;;;;;;;16.57;12.73;;;16.90;99.90;;;;;;5124257;28;20460;-84
2021/10/19 09:34:21;;;;;;;19.97;13.53;;;16.80;99.90;;;;;;5124724;28;20443;-83
2021/10/19 09:36:51;;;;;;;20.93;15.57;;;16.70;99.90;;;;;;5121014;28;20446;-86
2021/10/19 09:39:37;;;;;;;17.90;15.38;;;16.50;99.90;;;;;;5109806;28;20513;-85
2021/10/19 09:42:08;;;;;;;16.85;15.05;;;16.40;99.90;;;;;;5121788;27;20256;-86
2021/10/19 09:44:38;;;;;;;14.85;13.35;;;16.40;99.90;;;;;;5125261;27;20191;-89
2021/10/19 09:47:05;;;;;;;17.60;15.80;;;16.40;99.90;;;;;;5115970;27;20212;-87
2021/10/19 09:49:33;;;;;;;18.77;14.90;;;16.40;99.90;;;;;;5121227;28;20232;-86
2021/10/19 09:52:01;;;;;;;16.75;13.80;;;16.50;99.90;;;;;;5136563;27;20556;-85
2021/10/19 09:54:31;;;;;;;16.25;13.75;;;16.40;99.90;;;;;;5144729;27;20199;-85
2021/10/19 09:56:59;;;;;;;15.13;13.57;;;16.40;99.90;;;;;;5122758;27;20626;-85
2021/10/19 09:59:28;;;;;;;16.50;14.40;;;16.40;99.90;;;;;;5120383;28;20228;-85
2021/10/19 10:01:57;;;;;;;16.87;14.70;;;16.60;99.90;;;;;;5119052;27;20467;-85
2021/10/19 10:04:28;;;;;;;18.20;14.30;;;16.70;99.90;;;;;;5139399;27;20574;-86
2021/10/19 10:06:56;;;;;;;19.53;16.03;;;16.80;99.90;;;;;;5116857;28;20452;-85
2021/10/19 10:09:25;;;;;;;15.47;14.03;;;16.90;99.90;;;;;;5133204;27;20463;-86
2021/10/19 10:11:52;;;;;;;15.73;13.93;;;17.10;99.90;;;;;;5132038;27;20448;-85
2021/10/19 10:14:19;;;;;;;17.03;15.00;;;17.20;99.90;;;;;;5122743;27;20715;-85
2021/10/19 10:16:50;;;;;;;16.27;14.40;;;17.00;99.90;;;;;;5133418;27;20449;-85
2021/10/19 10:19:19;;;;;;;16.60;14.60;;;16.80;99.90;;;;;;5130848;27;20478;-85
2021/10/19 10:21:51;;;;;;;18.00;14.20;;;17.00;99.90;;;;;;5122556;28;20899;-86
2021/10/19 10:24:30;;;;;;;15.83;14.23;;;17.00;99.90;;;;;;5134228;28;20415;-86
2021/10/19 10:27:05;;;;;;;18.60;15.80;;;16.90;99.90;;;;;;5126763;28;20430;-85
2021/10/19 10:29:44;;;;;;;19.33;16.67;;;16.80;99.90;;;;;;5136309;28;20468;-85
2021/10/19 10:32:23;;;;;;;19.60;14.43;;;16.70;99.90;;;;;;5137312;28;20454;-85
2021/10/19 10:35:00;;;;;;;17.30;15.50;;;16.60;99.90;;;;;;5137698;27;20449;-87
2021/10/19 10:37:37;;;;;;;16.50;14.70;;;16.60;99.90;;;;;;5136265;28;20472;-85
2021/10/19 10:40:05;;;;;;;19.33;15.83;;;16.50;99.90;;;;;;5135086;28;20549;-85
2021/10/19 10:42:36;;;;;;;18.75;16.40;;;16.30;99.90;;;;;;5127906;28;20509;-84
2021/10/19 10:45:05;;;;;;;21.77;18.23;;;16.20;99.90;;;;;;5130471;28;20251;-84
2021/10/19 10:47:44;;;;;;;23.58;19.20;;;16.10;99.90;;;;;;5127833;28;20281;-85
2021/10/19 10:50:11;;;;;;;16.85;15.25;;;16.00;99.90;;;;;;5140879;27;20222;-86
2021/10/19 10:52:39;;;;;;;23.50;19.02;;;16.00;99.90;;;;;;5141536;27;20228;-86
2021/10/19 10:55:13;;;;;;;24.00;17.98;;;16.00;99.90;;;;;;5143671;27;20183;-84
2021/10/19 10:57:44;;;;;;;25.23;20.77;;;16.00;99.90;;;;;;5134025;27;20195;-83
2021/10/19 11:00:13;;;;;;;23.05;19.75;;;16.10;99.90;;;;;;5122653;28;20710;-85
2021/10/19 11:02:42;;;;;;;24.37;20.83;;;16.00;99.90;;;;;;5135049;28;20203;-86
2021/10/19 11:05:15;;;;;;;22.15;19.55;;;15.90;99.90;;;;;;5135679;28;20466;-86
2021/10/19 11:07:43;;;;;;;28.05;22.17;;;15.80;99.90;;;;;;5116670;28;20274;-87
2021/10/19 11:10:13;;;;;;;24.20;21.60;;;15.90;99.90;;;;;;5127440;28;20227;-84
2021/10/19 11:12:41;;;;;;;22.80;20.50;;;15.90;99.90;;;;;;5137017;27;20200;-85
2021/10/19 11:15:12;;;;;;;22.02;19.55;;;15.90;99.90;;;;;;5115711;28;20211;-84
2021/10/19 11:17:53;;;;;;;24.13;21.45;;;15.90;99.90;;;;;;5126573;28;20200;-85
2021/10/19 11:20:22;;;;;;;22.30;19.90;;;16.00;99.90;;;;;;5123916;28;20227;-85
2021/10/19 11:22:52;;;;;;;22.58;20.30;;;16.00;99.90;;;;;;5130472;28;20199;-85
2021/10/19 11:25:21;;;;;;;26.00;23.27;;;16.00;99.90;;;;;;5128267;27;20224;-84
2021/10/19 11:27:50;;;;;;;22.17;19.77;;;15.90;99.90;;;;;;5122418;28;20225;-84
2021/10/19 11:30:18;;;;;;;22.63;20.35;;;16.00;99.90;;;;;;5111185;28;20226;-83
2021/10/19 11:35:28;;;;;;;23.92;20.60;;;15.90;99.90;;;;;;5084414;28;20197;-85
2021/10/19 11:37:55;;;;;;;26.73;22.70;;;16.00;99.90;;;;;;5107492;28;20202;-85
2021/10/19 11:40:23;;;;;;;24.23;21.45;;;15.90;99.90;;;;;;5113784;28;20478;-85
2021/10/19 11:42:52;;;;;;;27.27;22.25;;;15.90;99.90;;;;;;5110415;28;20204;-84
2021/10/19 11:45:23;;;;;;;24.58;21.83;;;16.00;99.90;;;;;;5112093;28;20275;-86
2021/10/19 11:47:53;;;;;;;26.73;23.83;;;16.00;99.90;;;;;;5095790;28;20195;-85
2021/10/19 11:50:23;;;;;;;26.67;23.00;;;15.90;99.90;;;;;;5106752;28;20228;-86
2021/10/19 11:52:53;;;;;;;23.10;20.63;;;15.90;99.90;;;;;;5098047;28;20585;-85
2021/10/19 11:55:21;;;;;;;27.10;24.20;;;15.90;99.90;;;;;;5103912;28;20278;-84
2021/10/19 11:57:51;;;;;;;25.73;23.08;;;15.90;99.90;;;;;;5102186;28;20213;-85
2021/10/19 12:00:19;;;;;;;27.25;24.45;;;16.00;99.90;;;;;;5105464;28;20231;-84
2021/10/19 12:02:51;;;;;;;25.95;23.15;;;16.00;99.90;;;;;;5101834;28;20211;-83
2021/10/19 12:05:19;;;;;;;31.20;26.65;;;16.10;99.90;;;;;;5099301;28;20212;-84
2021/10/19 12:07:52;;;;;;;22.95;20.52;;;16.10;99.90;;;;;;5105046;28;20570;-84
2021/10/19 12:10:22;;;;;;;33.75;25.48;;;16.20;99.90;;;;;;5090750;28;20697;-84
2021/10/19 12:12:54;;;;;;;27.10;23.38;;;16.20;99.90;;;;;;5104276;28;20567;-84
2021/10/19 12:15:22;;;;;;;25.60;22.30;;;16.20;99.90;;;;;;5103496;28;20804;-85
2021/10/19 12:17:54;;;;;;;28.37;24.80;;;16.20;99.90;;;;;;5107330;28;20645;-85
2021/10/19 12:20:21;;;;;;;28.40;24.67;;;16.30;99.90;;;;;;5108715;28;20486;-84
2021/10/19 12:22:49;;;;;;;31.20;25.92;;;16.30;99.90;;;;;;5096739;28;20216;-84
2021/10/19 12:25:17;;;;;;;29.87;24.07;;;16.30;99.90;;;;;;5116907;28;20263;-84
2021/10/19 12:27:44;;;;;;;29.52;24.95;;;16.30;99.90;;;;;;5117272;28;20447;-84
2021/10/19 12:30:16;;;;;;;30.40;25.10;;;16.30;99.90;;;;;;5107737;28;20219;-85
2021/10/19 12:32:45;;;;;;;27.98;22.50;;;16.30;99.90;;;;;;5107962;28;20542;-84
2021/10/19 12:35:13;;;;;;;28.55;24.58;;;16.40;99.90;;;;;;5107752;28;20211;-85
2021/10/19 12:37:42;;;;;;;24.83;22.33;;;16.40;99.90;;;;;;5115343;28;20201;-85
2021/10/19 12:40:15;;;;;;;27.33;22.13;;;16.50;99.90;;;;;;5114224;28;20235;-85
2021/10/19 12:42:43;;;;;;;27.53;24.63;;;16.40;99.90;;;;;;5113491;28;20370;-84
2021/10/19 12:45:11;;;;;;;27.40;23.97;;;16.30;99.90;;;;;;5118027;28;20447;-84
2021/10/19 12:47:38;;;;;;;25.52;22.50;;;16.30;99.90;;;;;;5111689;28;20430;-84
2021/10/19 12:50:06;;;;;;;26.70;22.70;;;16.40;99.90;;;;;;5112175;28;20231;-84
2021/10/19 12:52:33;;;;;;;29.65;22.40;;;16.30;99.90;;;;;;5119651;28;20454;-84